Time;durP1;ratioP1;P1;durP2;ratioP2;P2;SDS_P1;SDS_P2;PMS_P1;PMS_P2;Temp;Humidity;BMP_temperature;BMP_pressure;BME280_temperature;BME280_humidity;BME280_pressure;Samples;Min_cycle;Max_cycle;Signal;HPM_P1;HPM_P2
2022/08/02 00:00:33;;;;;;;0.20;0.20;;;20.80;97.00;;;;;;6172004;23;20024;-86
2022/08/02 00:03:01;;;;;;;0.40;0.40;;;20.80;97.10;;;;;;6173638;23;20017;-86
2022/08/02 00:05:28;;;;;;;0.45;0.45;;;20.80;97.30;;;;;;6170952;23;20027;-86
2022/08/02 00:07:55;;;;;;;0.45;0.40;;;20.70;97.30;;;;;;6167788;23;20040;-86
2022/08/02 00:10:22;;;;;;;0.50;0.50;;;20.70;97.40;;;;;;6168803;23;20020;-88
2022/08/02 00:12:49;;;;;;;0.35;0.35;;;20.70;97.50;;;;;;6172047;23;20124;-88
2022/08/02 00:15:19;;;;;;;0.40;0.40;;;20.70;97.70;;;;;;6179884;23;20031;-87
2022/08/02 00:17:47;;;;;;;0.70;0.50;;;20.60;97.90;;;;;;6247349;22;20016;-86
2022/08/02 00:20:14;;;;;;;0.65;0.47;;;20.60;98.00;;;;;;6247975;22;20543;-87
2022/08/02 00:22:41;;;;;;;0.40;0.40;;;20.60;98.10;;;;;;6228038;23;20016;-86
2022/08/02 00:25:10;;;;;;;0.30;0.30;;;20.70;98.10;;;;;;6257148;22;20024;-86
2022/08/02 00:27:38;;;;;;;0.60;0.50;;;20.60;98.10;;;;;;6236776;23;20086;-86
2022/08/02 00:30:07;;;;;;;0.45;0.40;;;20.70;98.10;;;;;;6220667;23;20031;-88
2022/08/02 00:32:34;;;;;;;0.50;0.50;;;20.60;98.20;;;;;;6243193;22;20036;-87
2022/08/02 00:35:02;;;;;;;0.50;0.50;;;20.70;98.30;;;;;;6194452;23;20296;-86
2022/08/02 00:37:29;;;;;;;0.75;0.60;;;20.70;98.30;;;;;;6217402;23;20020;-87
2022/08/02 00:39:56;;;;;;;1.23;0.60;;;20.60;98.50;;;;;;6218297;23;20019;-87
2022/08/02 00:42:24;;;;;;;0.50;0.40;;;20.60;98.60;;;;;;6245378;22;20571;-88
2022/08/02 00:44:51;;;;;;;0.57;0.50;;;20.60;98.80;;;;;;6221494;23;20537;-88
2022/08/02 00:47:19;;;;;;;0.30;0.30;;;20.60;98.90;;;;;;6223379;23;20070;-88
2022/08/02 00:49:46;;;;;;;0.40;0.40;;;20.60;99.00;;;;;;6223301;23;20285;-88
2022/08/02 00:52:13;;;;;;;0.30;0.30;;;20.60;99.10;;;;;;6221089;23;20016;-88
2022/08/02 00:54:40;;;;;;;0.40;0.40;;;20.60;99.20;;;;;;6222248;23;20024;-88
2022/08/02 00:57:08;;;;;;;0.20;0.20;;;20.60;99.30;;;;;;6224062;23;20016;-89
2022/08/02 00:59:35;;;;;;;0.50;0.40;;;20.60;99.40;;;;;;6227928;23;20016;-88
2022/08/02 01:02:02;;;;;;;0.30;0.30;;;20.60;99.50;;;;;;6253397;22;20487;-88
2022/08/02 01:04:30;;;;;;;0.35;0.35;;;20.60;99.70;;;;;;6226537;23;20031;-88
2022/08/02 01:06:59;;;;;;;0.52;0.32;;;20.60;99.80;;;;;;6228148;23;20044;-88
2022/08/02 01:09:26;;;;;;;0.25;0.25;;;20.60;99.80;;;;;;6229538;23;20015;-87
2022/08/02 01:11:53;;;;;;;0.93;0.60;;;20.50;99.90;;;;;;6226963;23;20097;-87
2022/08/02 01:14:23;;;;;;;0.40;0.40;;;20.50;99.90;;;;;;6221780;23;20016;-87
2022/08/02 01:17:26;;;;;;;0.40;0.40;;;20.40;99.90;;;;;;6221933;23;20048;-87
2022/08/02 01:20:33;;;;;;;0.35;0.35;;;20.40;99.90;;;;;;6231791;22;20078;-90
2022/08/02 01:23:16;;;;;;;0.30;0.30;;;20.40;99.90;;;;;;6220191;23;20136;-88
2022/08/02 01:26:16;;;;;;;0.32;0.32;;;20.30;99.90;;;;;;6223479;23;20199;-89
2022/08/02 01:28:53;;;;;;;0.25;0.25;;;20.30;99.90;;;;;;6228838;23;20024;-87
2022/08/02 01:55:34;;;;;;;0.60;0.47;;;20.20;99.90;;;;;;6272669;22;20530;-87
2022/08/02 01:58:23;;;;;;;0.40;0.40;;;20.20;99.90;;;;;;6214108;22;20023;-88
2022/08/02 02:00:51;;;;;;;0.30;0.30;;;20.20;99.90;;;;;;6199217;22;20521;-87
2022/08/02 02:03:23;;;;;;;0.40;0.40;;;20.20;99.90;;;;;;6199809;22;20024;-87
2022/08/02 02:05:52;;;;;;;0.32;0.32;;;20.20;99.90;;;;;;6202515;22;20525;-88
2022/08/02 02:08:36;;;;;;;0.40;0.32;;;20.20;99.90;;;;;;6202632;22;20026;-88
2022/08/02 02:11:04;;;;;;;0.30;0.30;;;20.20;99.90;;;;;;6201586;22;20035;-88
2022/08/02 02:13:50;;;;;;;0.47;0.40;;;20.10;99.90;;;;;;6211393;22;20082;-87
2022/08/02 02:16:18;;;;;;;0.70;0.40;;;20.10;99.90;;;;;;6198940;22;20051;-87
2022/08/02 02:18:45;;;;;;;0.40;0.40;;;20.00;99.90;;;;;;6199211;22;20461;-87
2022/08/02 02:21:14;;;;;;;0.60;0.60;;;20.00;99.90;;;;;;6200828;22;20051;-88
2022/08/02 02:23:42;;;;;;;0.40;0.40;;;20.00;99.90;;;;;;6201022;22;20450;-88
2022/08/02 02:26:10;;;;;;;0.45;0.40;;;19.90;99.90;;;;;;6198932;22;20026;-88
2022/08/02 02:28:38;;;;;;;0.40;0.40;;;19.90;99.90;;;;;;6201560;22;20031;-88
2022/08/02 02:31:14;;;;;;;0.88;0.43;;;19.90;99.90;;;;;;6210187;22;20069;-88
2022/08/02 02:34:13;;;;;;;0.60;0.55;;;19.80;99.90;;;;;;6203307;22;20015;-87
2022/08/02 02:36:41;;;;;;;0.35;0.32;;;19.80;99.90;;;;;;6194195;22;20016;-88
2022/08/02 02:39:08;;;;;;;0.47;0.47;;;19.80;99.90;;;;;;6198330;22;20020;-89
2022/08/02 02:41:39;;;;;;;0.68;0.30;;;19.80;99.90;;;;;;6206087;22;20016;-91
2022/08/02 02:44:10;;;;;;;0.50;0.50;;;19.80;99.90;;;;;;6200636;22;20085;-88
2022/08/02 02:46:37;;;;;;;0.30;0.30;;;19.80;99.90;;;;;;6206360;22;20052;-87
2022/08/02 02:49:07;;;;;;;0.45;0.45;;;19.80;99.90;;;;;;6212281;22;20023;-89
2022/08/02 02:51:34;;;;;;;0.45;0.45;;;19.80;99.90;;;;;;6233414;22;20112;-89
2022/08/02 02:54:01;;;;;;;0.40;0.40;;;19.80;99.90;;;;;;6208870;22;20046;-90
2022/08/02 02:56:48;;;;;;;0.65;0.45;;;19.70;99.90;;;;;;6235216;22;20023;-88
2022/08/02 02:59:16;;;;;;;0.43;0.43;;;19.70;99.90;;;;;;6249991;22;20085;-87
2022/08/02 03:01:43;;;;;;;0.40;0.40;;;19.70;99.90;;;;;;6224096;22;20020;-88
2022/08/02 03:04:23;;;;;;;1.15;0.50;;;19.70;99.90;;;;;;6231801;22;20011;-88
2022/08/02 03:06:50;;;;;;;0.60;0.30;;;19.80;99.90;;;;;;6224016;22;20098;-87
2022/08/02 03:09:17;;;;;;;0.35;0.35;;;19.70;99.90;;;;;;6225345;22;20027;-87
2022/08/02 03:11:45;;;;;;;0.65;0.47;;;19.80;99.90;;;;;;6222575;22;20335;-87
2022/08/02 03:14:12;;;;;;;0.40;0.40;;;19.70;99.90;;;;;;6224093;22;20015;-88
2022/08/02 03:16:51;;;;;;;0.45;0.45;;;19.80;99.90;;;;;;6223998;22;20038;-89
2022/08/02 03:19:20;;;;;;;0.43;0.43;;;19.80;99.90;;;;;;6222307;22;20455;-87
2022/08/02 03:21:48;;;;;;;0.50;0.40;;;19.80;99.90;;;;;;6221364;22;20053;-88
2022/08/02 03:24:23;;;;;;;0.63;0.50;;;19.70;99.90;;;;;;6222525;22;20023;-88
2022/08/02 03:26:54;;;;;;;0.60;0.50;;;19.70;99.90;;;;;;6224363;22;20019;-88
2022/08/02 03:29:21;;;;;;;0.50;0.50;;;19.70;99.90;;;;;;6219533;22;20038;-87
2022/08/02 03:31:48;;;;;;;0.40;0.40;;;19.70;99.90;;;;;;6227515;22;20061;-88
2022/08/02 03:34:16;;;;;;;0.60;0.40;;;19.70;99.90;;;;;;6225602;22;20224;-87
2022/08/02 03:36:43;;;;;;;0.47;0.47;;;19.70;99.90;;;;;;6223354;22;20046;-89
2022/08/02 03:39:10;;;;;;;0.43;0.43;;;19.60;99.90;;;;;;6226163;22;20346;-87
2022/08/02 03:41:37;;;;;;;1.23;0.77;;;19.60;99.90;;;;;;6223977;22;20019;-89
2022/08/02 03:44:04;;;;;;;0.77;0.60;;;19.60;99.90;;;;;;6223080;22;20089;-88
2022/08/02 03:46:31;;;;;;;0.50;0.50;;;19.60;99.90;;;;;;6223834;22;20020;-88
2022/08/02 03:48:58;;;;;;;0.68;0.60;;;19.50;99.90;;;;;;6224347;22;20020;-88
2022/08/02 03:51:25;;;;;;;0.32;0.32;;;19.50;99.90;;;;;;6229488;22;20086;-87
2022/08/02 03:53:52;;;;;;;0.30;0.30;;;19.50;99.90;;;;;;6232454;22;20089;-87
2022/08/02 03:56:19;;;;;;;0.52;0.40;;;19.40;99.90;;;;;;6227307;22;20089;-87
2022/08/02 03:58:50;;;;;;;1.10;0.70;;;19.30;99.90;;;;;;6225168;22;20015;-87
2022/08/02 04:01:17;;;;;;;0.65;0.60;;;19.30;99.90;;;;;;6224585;22;20019;-88
2022/08/02 04:03:44;;;;;;;0.57;0.47;;;19.30;99.90;;;;;;6219534;22;20016;-87
2022/08/02 04:06:11;;;;;;;0.90;0.50;;;19.30;99.90;;;;;;6219654;22;20023;-88
2022/08/02 04:08:41;;;;;;;0.75;0.57;;;19.20;99.90;;;;;;6221943;22;20016;-87
2022/08/02 04:13:54;;;;;;;0.47;0.47;;;19.20;99.90;;;;;;6249336;22;20019;-87
2022/08/02 04:16:31;;;;;;;0.40;0.40;;;19.20;99.90;;;;;;6219501;22;20022;-89
2022/08/02 04:19:00;;;;;;;0.20;0.20;;;19.20;99.90;;;;;;6242408;22;20098;-89
2022/08/02 04:21:39;;;;;;;0.60;0.57;;;19.20;99.90;;;;;;6216984;22;20020;-88
2022/08/02 04:24:30;;;;;;;0.40;0.40;;;19.20;99.90;;;;;;6221699;22;20099;-88
2022/08/02 04:27:00;;;;;;;0.85;0.50;;;19.20;99.90;;;;;;6219229;22;20019;-89
2022/08/02 04:29:47;;;;;;;0.60;0.50;;;19.20;99.90;;;;;;6225103;22;20099;-86
2022/08/02 04:32:15;;;;;;;0.73;0.70;;;19.10;99.90;;;;;;6215044;22;20172;-86
2022/08/02 04:34:43;;;;;;;0.40;0.40;;;19.10;99.90;;;;;;6216378;22;20015;-86
2022/08/02 04:37:30;;;;;;;0.57;0.40;;;19.10;99.90;;;;;;6227109;22;20019;-88
2022/08/02 04:39:57;;;;;;;0.47;0.40;;;19.10;99.90;;;;;;6218454;22;20071;-87
2022/08/02 04:42:25;;;;;;;0.57;0.55;;;19.10;99.90;;;;;;6217295;22;20479;-89
2022/08/02 04:44:52;;;;;;;0.35;0.35;;;19.10;99.90;;;;;;6218962;22;20039;-87
2022/08/02 04:47:19;;;;;;;1.25;0.70;;;19.10;99.90;;;;;;6245763;22;20019;-86
2022/08/02 04:50:07;;;;;;;0.85;0.70;;;19.10;99.90;;;;;;6231818;22;20455;-87
2022/08/02 04:52:34;;;;;;;0.77;0.73;;;19.00;99.90;;;;;;6224988;22;20023;-86
2022/08/02 04:55:01;;;;;;;0.95;0.85;;;19.00;99.90;;;;;;6222071;22;20019;-86
2022/08/02 05:00:18;;;;;;;1.05;0.95;;;19.00;99.90;;;;;;6251328;22;20046;-87
2022/08/02 05:02:46;;;;;;;0.82;0.70;;;19.00;99.90;;;;;;6217231;22;20024;-88
2022/08/02 05:05:13;;;;;;;1.15;0.82;;;19.00;99.90;;;;;;6216548;22;20020;-87
2022/08/02 05:07:41;;;;;;;1.25;1.08;;;19.00;99.90;;;;;;6218086;22;20137;-90
2022/08/02 05:10:08;;;;;;;1.00;0.80;;;19.00;99.90;;;;;;6219907;22;20026;-88
2022/08/02 05:12:39;;;;;;;1.08;0.90;;;19.00;99.90;;;;;;6226555;22;20046;-87
2022/08/02 05:15:07;;;;;;;0.75;0.75;;;19.10;99.90;;;;;;6221480;22;20069;-90
2022/08/02 05:17:38;;;;;;;1.00;0.95;;;19.10;99.90;;;;;;6226605;22;20153;-91
2022/08/02 05:20:14;;;;;;;0.65;0.63;;;19.10;99.90;;;;;;6227403;22;20380;-91
2022/08/02 05:22:44;;;;;;;0.82;0.80;;;19.10;99.90;;;;;;6225274;22;20043;-91
2022/08/02 05:25:19;;;;;;;0.60;0.60;;;19.10;99.90;;;;;;6228013;22;20046;-92
2022/08/02 05:27:47;;;;;;;0.55;0.52;;;19.20;99.90;;;;;;6229639;22;20020;-93
2022/08/02 05:30:14;;;;;;;0.85;0.75;;;19.20;99.90;;;;;;6224049;22;20053;-89
2022/08/02 05:32:51;;;;;;;1.15;0.90;;;19.30;99.90;;;;;;6224879;22;20039;-90
2022/08/02 05:35:20;;;;;;;0.95;0.77;;;19.30;99.90;;;;;;6227548;22;20062;-93
2022/08/02 05:37:48;;;;;;;1.00;0.90;;;19.30;99.90;;;;;;6225354;22;20378;-90
2022/08/02 05:40:15;;;;;;;0.93;0.73;;;19.30;99.90;;;;;;6223721;22;20508;-89
2022/08/02 05:42:42;;;;;;;1.55;0.90;;;19.40;99.90;;;;;;6222127;22;20035;-90
2022/08/02 05:45:09;;;;;;;0.80;0.80;;;19.40;99.90;;;;;;6220364;22;20085;-89
2022/08/02 05:47:37;;;;;;;0.60;0.60;;;19.40;99.90;;;;;;6222258;22;20701;-90
2022/08/02 05:50:06;;;;;;;0.55;0.55;;;19.50;99.90;;;;;;6222785;22;20087;-89
2022/08/02 05:52:39;;;;;;;0.70;0.70;;;19.60;99.90;;;;;;6220997;22;20019;-90
2022/08/02 05:55:08;;;;;;;0.73;0.65;;;19.60;99.90;;;;;;6271980;22;20030;-90
2022/08/02 05:58:08;;;;;;;1.05;0.80;;;19.60;99.90;;;;;;6247465;22;20379;-90
2022/08/02 06:00:35;;;;;;;0.50;0.50;;;19.60;99.90;;;;;;6227859;22;20024;-90
2022/08/02 06:03:16;;;;;;;0.73;0.73;;;19.80;99.90;;;;;;6221157;22;20020;-92
2022/08/02 06:06:01;;;;;;;0.70;0.70;;;19.90;99.90;;;;;;6272291;22;20020;-92
2022/08/02 06:08:48;;;;;;;0.63;0.63;;;20.00;99.90;;;;;;6228075;22;20016;-89
2022/08/02 06:11:21;;;;;;;1.17;1.00;;;20.10;99.90;;;;;;6236345;22;20355;-92
2022/08/02 06:13:49;;;;;;;1.33;1.00;;;20.20;99.90;;;;;;6236659;22;20079;-90
2022/08/02 06:16:21;;;;;;;2.40;1.23;;;20.30;99.90;;;;;;6234790;22;20107;-90
2022/08/02 06:18:59;;;;;;;1.27;0.90;;;20.40;99.90;;;;;;6235115;22;20023;-92
2022/08/02 06:21:31;;;;;;;1.13;1.02;;;20.40;99.90;;;;;;6229703;22;20016;-92
2022/08/02 06:24:21;;;;;;;1.23;1.13;;;20.50;99.90;;;;;;6236236;22;20020;-90
2022/08/02 06:26:51;;;;;;;1.75;1.00;;;20.60;99.90;;;;;;6223614;22;20016;-91
2022/08/02 06:29:19;;;;;;;1.52;1.33;;;20.70;99.90;;;;;;6226605;22;20026;-90
2022/08/02 06:31:51;;;;;;;2.38;1.50;;;20.70;99.90;;;;;;6228124;22;20027;-91
2022/08/02 06:34:19;;;;;;;1.17;0.93;;;20.70;99.90;;;;;;6251288;22;20020;-90
2022/08/02 06:36:58;;;;;;;1.00;0.90;;;20.80;99.90;;;;;;6228033;22;20050;-91
2022/08/02 06:39:45;;;;;;;1.30;1.20;;;21.00;99.90;;;;;;6229053;22;20023;-92
2022/08/02 06:42:14;;;;;;;1.35;1.02;;;21.10;99.90;;;;;;6232548;22;20084;-91
2022/08/02 06:44:41;;;;;;;1.05;0.90;;;21.10;99.90;;;;;;6232260;22;20019;-91
2022/08/02 06:47:19;;;;;;;1.75;1.30;;;21.20;99.90;;;;;;6233326;22;20019;-91
2022/08/02 06:49:46;;;;;;;1.63;1.45;;;21.20;99.90;;;;;;6229091;22;20026;-91
2022/08/02 06:52:33;;;;;;;1.60;1.35;;;21.20;99.90;;;;;;6230161;22;20015;-91
2022/08/02 06:55:02;;;;;;;2.47;1.48;;;21.30;99.90;;;;;;6229204;22;20028;-90
2022/08/02 06:57:29;;;;;;;1.92;1.40;;;21.20;99.90;;;;;;6226549;22;20024;-91
2022/08/02 07:00:00;;;;;;;1.65;1.02;;;21.40;99.90;;;;;;6225452;22;20411;-92
2022/08/02 07:02:28;;;;;;;1.33;1.23;;;21.50;99.90;;;;;;6225760;22;20403;-92
2022/08/02 07:04:56;;;;;;;2.33;1.38;;;21.50;99.90;;;;;;6223293;22;20469;-92
2022/08/02 07:07:23;;;;;;;1.90;1.63;;;21.60;99.90;;;;;;6226897;22;20003;-91
2022/08/02 07:09:51;;;;;;;1.80;1.42;;;21.60;99.90;;;;;;6236848;22;20012;-91
2022/08/02 07:12:32;;;;;;;1.70;1.30;;;21.70;99.90;;;;;;6224976;22;20090;-92
2022/08/02 07:15:00;;;;;;;1.55;1.33;;;21.80;99.90;;;;;;6218928;22;20330;-92
2022/08/02 07:17:27;;;;;;;2.42;1.25;;;22.00;99.90;;;;;;6216559;22;20028;-91
2022/08/02 07:19:58;;;;;;;1.48;1.30;;;21.90;99.90;;;;;;6224962;22;20085;-92
2022/08/02 07:22:25;;;;;;;2.35;1.35;;;21.90;99.90;;;;;;6233483;22;20015;-92
2022/08/02 07:24:58;;;;;;;1.77;1.30;;;21.90;99.90;;;;;;6235195;22;20035;-92
2022/08/02 07:27:26;;;;;;;1.73;1.23;;;21.90;99.90;;;;;;6221015;22;20023;-92
2022/08/02 07:29:53;;;;;;;2.22;1.10;;;22.00;99.90;;;;;;6220940;22;20012;-91
2022/08/02 07:32:23;;;;;;;1.30;1.00;;;22.10;99.90;;;;;;6221009;22;20106;-93
2022/08/02 07:34:50;;;;;;;1.30;1.20;;;22.30;99.90;;;;;;6220703;22;20023;-92
2022/08/02 07:37:20;;;;;;;1.40;1.30;;;22.40;99.90;;;;;;6220544;22;20016;-92
2022/08/02 07:40:09;;;;;;;2.53;1.75;;;22.50;99.90;;;;;;6227280;22;20042;-93
2022/08/02 07:42:44;;;;;;;2.58;1.70;;;22.40;99.90;;;;;;6221177;22;20334;-91
2022/08/02 07:45:12;;;;;;;2.03;1.17;;;22.50;99.90;;;;;;6219903;22;20046;-93
2022/08/02 07:47:39;;;;;;;1.42;1.13;;;22.60;99.90;;;;;;6222366;22;20517;-92
2022/08/02 07:50:10;;;;;;;1.92;1.25;;;22.70;99.90;;;;;;6221083;22;20454;-92
2022/08/02 07:52:40;;;;;;;1.58;1.27;;;22.70;99.90;;;;;;6220790;22;20024;-93
2022/08/02 07:55:08;;;;;;;1.70;1.25;;;22.80;99.90;;;;;;6219260;22;20043;-92
2022/08/02 07:57:38;;;;;;;3.28;1.10;;;22.80;99.90;;;;;;6220136;22;20046;-91
2022/08/02 08:00:12;;;;;;;2.03;1.15;;;22.80;99.90;;;;;;6222765;22;20050;-92
2022/08/02 08:02:39;;;;;;;2.35;1.55;;;22.80;99.90;;;;;;6218400;22;20030;-93
2022/08/02 08:05:07;;;;;;;3.60;1.23;;;22.80;99.90;;;;;;6217663;22;20019;-92
2022/08/02 08:07:34;;;;;;;2.47;1.40;;;23.00;99.90;;;;;;6216769;22;20093;-92
2022/08/02 08:10:02;;;;;;;1.35;1.20;;;23.00;99.90;;;;;;6218285;22;20236;-92
2022/08/02 08:12:29;;;;;;;2.15;1.50;;;23.00;99.90;;;;;;6217032;22;20023;-94
2022/08/02 08:14:56;;;;;;;2.65;1.40;;;23.00;99.90;;;;;;6218491;22;20023;-91
2022/08/02 08:17:23;;;;;;;2.75;1.40;;;23.00;99.90;;;;;;6227097;22;20127;-93
2022/08/02 08:19:51;;;;;;;2.28;1.02;;;23.00;99.90;;;;;;6231056;22;20019;-93
2022/08/02 08:22:21;;;;;;;1.42;1.23;;;23.00;99.90;;;;;;6221446;22;20020;-92
2022/08/02 08:24:48;;;;;;;1.08;0.95;;;23.10;99.90;;;;;;6220332;22;20020;-92
2022/08/02 08:27:16;;;;;;;1.23;0.88;;;23.10;99.90;;;;;;6216237;22;20102;-92
2022/08/02 08:29:44;;;;;;;1.92;0.98;;;23.20;99.90;;;;;;6227710;22;20019;-92
2022/08/02 08:32:12;;;;;;;1.55;1.02;;;23.40;99.90;;;;;;6225177;22;20043;-92
2022/08/02 08:34:47;;;;;;;1.70;1.20;;;23.50;99.90;;;;;;6206645;23;20016;-91
2022/08/02 08:37:14;;;;;;;1.65;1.00;;;23.50;99.90;;;;;;6223217;23;20020;-91
2022/08/02 08:39:44;;;;;;;3.35;1.30;;;23.60;99.90;;;;;;6211877;23;20020;-92
2022/08/02 08:42:25;;;;;;;1.27;1.00;;;23.60;99.90;;;;;;6216232;23;20024;-91
2022/08/02 08:44:55;;;;;;;1.67;0.95;;;23.70;99.90;;;;;;6210768;23;20110;-92
2022/08/02 08:47:26;;;;;;;1.27;0.85;;;23.80;99.90;;;;;;6211475;23;20183;-92
2022/08/02 08:50:05;;;;;;;1.60;1.02;;;24.00;99.90;;;;;;6212106;23;20020;-93
2022/08/02 08:52:36;;;;;;;;;;;24.10;99.90;;;;;;6211040;23;20024;-91
2022/08/02 08:55:04;;;;;;;1.13;1.00;;;24.20;99.90;;;;;;6210781;23;20346;-93
2022/08/02 08:57:31;;;;;;;1.25;0.93;;;24.30;99.90;;;;;;6211693;23;20019;-91
2022/08/02 08:59:58;;;;;;;1.13;0.85;;;24.40;99.90;;;;;;6215608;23;20200;-93
2022/08/02 09:02:25;;;;;;;2.35;0.73;;;24.60;99.90;;;;;;6212687;23;20040;-93
2022/08/02 09:04:54;;;;;;;1.58;1.10;;;24.40;99.90;;;;;;6213232;23;20411;-92
2022/08/02 09:07:22;;;;;;;3.80;1.08;;;24.40;99.90;;;;;;6213128;23;20103;-92
2022/08/02 09:09:49;;;;;;;1.05;0.80;;;24.30;99.90;;;;;;6213697;23;20017;-91
2022/08/02 09:12:18;;;;;;;2.10;0.95;;;24.30;99.90;;;;;;6212538;23;20019;-93
2022/08/02 09:14:45;;;;;;;0.95;0.90;;;24.30;99.90;;;;;;6213258;23;20115;-92
2022/08/02 09:17:17;;;;;;;1.45;1.10;;;24.30;99.90;;;;;;6213061;23;20070;-92
2022/08/02 09:19:47;;;;;;;0.82;0.65;;;24.30;99.90;;;;;;6213913;23;20364;-90
2022/08/02 09:22:14;;;;;;;1.02;0.93;;;24.30;99.90;;;;;;6214064;23;20332;-91
2022/08/02 09:24:44;;;;;;;1.13;0.93;;;24.40;99.90;;;;;;6214979;23;20043;-92
2022/08/02 09:27:16;;;;;;;1.65;1.23;;;24.50;99.90;;;;;;6222154;23;20024;-91
2022/08/02 09:29:52;;;;;;;1.93;1.10;;;24.60;99.90;;;;;;6221713;23;20243;-92
2022/08/02 09:32:46;;;;;;;1.85;0.73;;;24.40;99.90;;;;;;6219115;23;20028;-93
2022/08/02 09:35:32;;;;;;;1.00;0.85;;;24.40;99.90;;;;;;6213380;23;20050;-92
2022/08/02 09:38:19;;;;;;;1.27;0.80;;;24.40;99.90;;;;;;6219807;23;20044;-92
2022/08/02 09:40:46;;;;;;;0.60;0.60;;;24.30;99.90;;;;;;6229382;23;20119;-92
2022/08/02 09:43:13;;;;;;;2.40;0.90;;;24.20;99.90;;;;;;6214447;23;20120;-91
2022/08/02 09:45:40;;;;;;;2.00;1.25;;;24.00;99.90;;;;;;6214104;23;20106;-91
2022/08/02 09:48:08;;;;;;;1.42;1.20;;;23.80;99.90;;;;;;6213754;23;20023;-92
2022/08/02 09:50:36;;;;;;;1.30;1.05;;;23.70;99.90;;;;;;6213608;23;20044;-91
2022/08/02 09:53:03;;;;;;;1.25;1.05;;;23.70;99.90;;;;;;6214071;23;20031;-92
2022/08/02 09:55:30;;;;;;;1.20;1.00;;;23.70;99.90;;;;;;6214423;23;20016;-92
2022/08/02 09:57:57;;;;;;;1.48;0.90;;;24.00;99.90;;;;;;6212753;23;20505;-91
2022/08/02 10:00:25;;;;;;;1.60;1.00;;;24.20;99.90;;;;;;6215672;23;20457;-91
2022/08/02 10:03:12;;;;;;;1.73;1.30;;;24.30;99.90;;;;;;6223554;23;20024;-92
2022/08/02 10:06:06;;;;;;;1.60;1.10;;;24.40;99.90;;;;;;6216697;23;20016;-91
2022/08/02 10:08:42;;;;;;;1.77;1.05;;;24.70;99.90;;;;;;6218417;23;20026;-92
2022/08/02 10:11:12;;;;;;;1.10;0.93;;;24.80;99.90;;;;;;6215196;23;20016;-92
2022/08/02 10:13:39;;;;;;;1.17;0.80;;;25.00;99.90;;;;;;6213073;23;20139;-92
2022/08/02 10:16:06;;;;;;;1.17;0.98;;;25.10;99.90;;;;;;6213964;23;20115;-93
2022/08/02 10:18:34;;;;;;;1.23;0.88;;;25.20;99.90;;;;;;6214451;23;20016;-93
2022/08/02 10:21:09;;;;;;;1.27;0.82;;;25.20;99.90;;;;;;6160457;23;20020;-93
2022/08/02 10:23:36;;;;;;;1.20;0.90;;;25.20;99.90;;;;;;6158224;23;20024;-93
2022/08/02 10:26:06;;;;;;;1.38;1.00;;;25.30;99.90;;;;;;6158364;23;20128;-91
2022/08/02 10:28:33;;;;;;;1.63;1.30;;;25.20;99.90;;;;;;6157792;23;20508;-92
2022/08/02 10:31:01;;;;;;;2.05;1.27;;;25.00;99.90;;;;;;6157390;23;20020;-91
2022/08/02 10:33:31;;;;;;;1.25;1.00;;;25.10;99.90;;;;;;6159292;23;20067;-93
2022/08/02 10:35:59;;;;;;;1.65;1.00;;;25.20;99.90;;;;;;6167598;23;20025;-91
2022/08/02 10:38:33;;;;;;;1.88;1.17;;;25.10;99.90;;;;;;6171439;23;20016;-93
2022/08/02 10:41:00;;;;;;;1.13;0.93;;;25.20;99.90;;;;;;6158467;23;20094;-92
2022/08/02 10:43:30;;;;;;;1.75;1.15;;;25.00;99.90;;;;;;6158697;23;20024;-94
2022/08/02 10:46:20;;;;;;;1.95;0.90;;;25.00;99.90;;;;;;6185011;23;20046;-91
2022/08/02 10:49:22;;;;;;;1.75;1.02;;;25.30;99.90;;;;;;6163299;23;20016;-94
2022/08/02 10:52:06;;;;;;;2.97;1.55;;;25.50;99.90;;;;;;6044932;23;20042;-93
2022/08/02 10:54:39;;;;;;;1.90;1.00;;;25.40;99.90;;;;;;6124945;23;20319;-96
2022/08/02 10:57:18;;;;;;;1.33;0.80;;;25.50;99.90;;;;;;6159038;23;20503;-93
2022/08/02 10:59:48;;;;;;;1.45;0.90;;;25.60;99.90;;;;;;6162642;23;20099;-93
2022/08/02 11:02:32;;;;;;;1.30;0.95;;;25.70;99.90;;;;;;6166760;23;20040;-92
2022/08/02 11:05:01;;;;;;;1.05;0.95;;;26.00;99.90;;;;;;6165084;23;20024;-92
2022/08/02 11:07:54;;;;;;;1.17;0.82;;;26.20;99.90;;;;;;6164975;23;20048;-92
2022/08/02 11:10:29;;;;;;;0.80;0.65;;;26.40;99.90;;;;;;6166884;23;20024;-94
2022/08/02 11:13:28;;;;;;;1.30;1.10;;;26.30;99.90;;;;;;6166136;23;20021;-92
2022/08/02 11:16:03;;;;;;;1.10;0.80;;;26.10;99.90;;;;;;6129797;23;20143;-92
2022/08/02 11:18:49;;;;;;;1.98;1.00;;;26.10;99.90;;;;;;6170544;23;20348;-92
2022/08/02 11:21:27;;;;;;;2.15;0.70;;;26.20;99.90;;;;;;6220105;23;20132;-92
2022/08/02 11:23:54;;;;;;;0.70;0.60;;;26.40;99.90;;;;;;6194098;23;20400;-91
2022/08/02 11:26:28;;;;;;;0.93;0.70;;;26.40;99.90;;;;;;6191506;23;20489;-93
2022/08/02 11:29:00;;;;;;;0.93;0.60;;;25.80;99.90;;;;;;6215009;23;20047;-93
2022/08/02 11:31:28;;;;;;;2.13;0.80;;;25.70;99.90;;;;;;6193977;23;20016;-92
2022/08/02 11:33:55;;;;;;;0.98;0.60;;;25.50;99.90;;;;;;6169491;23;20090;-93
2022/08/02 11:36:22;;;;;;;0.77;0.50;;;25.60;99.90;;;;;;6195138;23;20382;-92
2022/08/02 11:38:50;;;;;;;0.93;0.68;;;25.50;99.90;;;;;;6192338;23;20120;-88
2022/08/02 11:41:22;;;;;;;0.50;0.50;;;25.40;99.90;;;;;;6189483;23;20098;-92
2022/08/02 11:44:09;;;;;;;0.70;0.70;;;25.40;99.90;;;;;;6200006;23;20550;-92
2022/08/02 11:46:37;;;;;;;0.75;0.40;;;25.20;99.90;;;;;;6200056;23;20611;-91
2022/08/02 11:49:12;;;;;;;2.42;0.68;;;25.30;99.90;;;;;;6193353;23;20020;-92
2022/08/02 11:51:49;;;;;;;0.60;0.43;;;25.20;99.90;;;;;;6193825;23;20020;-92
2022/08/02 11:54:30;;;;;;;1.90;0.40;;;25.20;99.90;;;;;;6196333;23;20012;-92
2022/08/02 11:57:20;;;;;;;0.38;0.38;;;25.30;99.90;;;;;;6188902;23;20077;-93
2022/08/02 11:59:50;;;;;;;0.30;0.30;;;25.50;99.90;;;;;;6213393;23;20004;-93
2022/08/02 12:02:19;;;;;;;0.63;0.63;;;25.60;99.90;;;;;;6172630;23;20058;-92
2022/08/02 12:04:56;;;;;;;0.98;0.88;;;25.60;99.90;;;;;;6194593;23;20046;-92
2022/08/02 12:07:29;;;;;;;1.38;1.02;;;25.60;99.90;;;;;;6197066;23;20095;-93
2022/08/02 12:10:04;;;;;;;1.30;0.80;;;25.50;99.90;;;;;;6198965;23;20055;-92
2022/08/02 12:12:32;;;;;;;0.70;0.50;;;25.70;99.90;;;;;;6194392;23;20016;-94
2022/08/02 12:15:00;;;;;;;1.35;0.80;;;25.80;99.90;;;;;;6218066;23;20604;-93
2022/08/02 12:20:13;;;;;;;1.00;0.57;;;26.00;99.90;;;;;;6212055;23;20036;-92
2022/08/02 12:22:43;;;;;;;0.63;0.60;;;26.10;99.90;;;;;;6218173;23;20016;-93
2022/08/02 12:25:20;;;;;;;0.47;0.47;;;26.30;99.90;;;;;;6216907;23;20302;-92
2022/08/02 12:28:21;;;;;;;1.15;0.50;;;26.30;99.90;;;;;;6220902;23;20038;-93
2022/08/02 12:30:56;;;;;;;0.68;0.65;;;26.30;99.90;;;;;;6220560;23;20024;-93
2022/08/02 12:33:50;;;;;;;0.60;0.50;;;26.30;99.90;;;;;;6220182;23;20016;-93
2022/08/02 12:36:21;;;;;;;0.85;0.80;;;26.50;99.90;;;;;;6220059;23;20088;-93
2022/08/02 12:38:59;;;;;;;0.40;0.40;;;26.90;99.90;;;;;;6223475;23;20020;-94
2022/08/02 12:41:27;;;;;;;0.40;0.40;;;27.10;99.90;;;;;;6224439;23;20020;-94
2022/08/02 12:44:01;;;;;;;0.43;0.43;;;27.20;99.90;;;;;;6218280;23;20448;-94
2022/08/02 12:46:30;;;;;;;0.85;0.43;;;27.30;99.50;;;;;;6218391;23;20012;-93
2022/08/02 12:49:18;;;;;;;0.63;0.50;;;27.20;99.50;;;;;;6219399;23;20036;-92
2022/08/02 12:51:46;;;;;;;0.45;0.45;;;27.10;99.60;;;;;;6218736;23;20023;-93
2022/08/02 12:54:25;;;;;;;0.73;0.60;;;27.20;99.50;;;;;;6226992;23;20043;-92
2022/08/02 12:57:15;;;;;;;1.00;0.70;;;26.90;99.60;;;;;;6226764;23;20123;-93
2022/08/02 12:59:49;;;;;;;1.05;0.80;;;26.70;99.90;;;;;;6229961;23;20020;-93
2022/08/02 13:02:17;;;;;;;0.80;0.80;;;26.70;99.80;;;;;;6232173;23;20020;-92
2022/08/02 13:04:45;;;;;;;1.20;0.80;;;26.60;99.70;;;;;;6232101;23;20282;-93
2022/08/02 13:07:17;;;;;;;1.35;0.70;;;26.70;99.70;;;;;;6230273;23;20103;-94
2022/08/02 13:09:45;;;;;;;1.20;0.90;;;26.60;99.80;;;;;;6221504;23;20024;-91
2022/08/02 13:12:12;;;;;;;1.08;0.85;;;26.50;99.80;;;;;;6218175;23;20051;-92
2022/08/02 13:14:41;;;;;;;1.05;0.75;;;26.60;99.60;;;;;;6218746;23;20016;-91
2022/08/02 13:17:11;;;;;;;2.42;1.63;;;26.80;99.40;;;;;;6217131;23;20024;-93
2022/08/02 13:19:41;;;;;;;1.75;1.42;;;27.00;98.70;;;;;;6218034;23;20030;-93
2022/08/02 13:22:08;;;;;;;3.38;3.08;;;28.00;98.40;;;;;;6218675;23;20105;-93
2022/08/02 13:24:36;;;;;;;3.30;3.00;;;28.50;97.60;;;;;;6214486;23;20402;-94
2022/08/02 13:27:22;;;;;;;2.00;1.70;;;28.70;97.10;;;;;;6218873;23;20028;-93
2022/08/02 13:29:49;;;;;;;2.60;1.75;;;28.50;96.90;;;;;;6217745;23;20082;-93
2022/08/02 13:32:16;;;;;;;1.42;1.30;;;28.50;96.90;;;;;;6216784;23;20016;-93
2022/08/02 13:34:43;;;;;;;1.50;1.25;;;28.60;96.80;;;;;;6216704;23;20020;-95
2022/08/02 13:37:10;;;;;;;1.10;1.00;;;29.00;96.60;;;;;;6216640;23;20020;-94
2022/08/02 13:39:37;;;;;;;1.10;0.80;;;29.20;96.10;;;;;;6216202;23;20369;-94
2022/08/02 13:42:05;;;;;;;0.95;0.80;;;29.80;95.40;;;;;;6216213;23;20024;-93
2022/08/02 13:44:33;;;;;;;1.85;0.82;;;30.20;95.00;;;;;;6217953;23;20156;-93